KSYN/SYN METAR and TAF weather

Enter ICAO airport designator
Station Type Date Time Source
KSYN METAR 2020/07/15 08:35 UTC NOAA

KSYN 150835Z AUTO 00000KT 1/4SM FG OVC001 12/12 A2998 RMK AO2 T01200115


Station Type Date Time Source
KSYN Decoded METAR 2020/07/15 08:35 UTC NOAA

Stanton, Stanton Airfield, MN, United States (KSYN) 44-28-31N 093-00-58W
Jul 15, 2020 - 04:35 AM EDT / 2020.07.15 0835 UTC
Wind: Calm:0
Visibility: 1/4 mile(s):0
Sky conditions: overcast
Weather: fog
Temperature: 53.6 F (12.0 C)
Dew Point: 52.7 F (11.5 C)
Relative Humidity: 96%
Pressure (altimeter): 29.98 in. Hg (1015 hPa)
ob: KSYN 150835Z AUTO 00000KT 1/4SM FG OVC001 12/12 A2998 RMK AO2 T01200115
cycle: 8

Station Type Date Time Source
KSYN TAF UTC NOAA

Error!

Example: see airport list